sensor_id;sensor_type;location;lat;lon;timestamp;P1;durP1;ratioP1;P2;durP2;ratioP2
79348;SDS011;68817;48.110;11.660;2023-04-07T00:01:52;8.15;;;4.70;;
79348;SDS011;68817;48.110;11.660;2023-04-07T00:04:17;6.95;;;4.50;;
79348;SDS011;68817;48.110;11.660;2023-04-07T00:06:43;6.78;;;4.38;;
79348;SDS011;68817;48.110;11.660;2023-04-07T00:09:09;7.45;;;4.40;;
79348;SDS011;68817;48.110;11.660;2023-04-07T00:11:37;8.10;;;4.80;;
79348;SDS011;68817;48.110;11.660;2023-04-07T00:14:02;7.53;;;4.57;;
79348;SDS011;68817;48.110;11.660;2023-04-07T00:16:28;8.43;;;5.00;;
79348;SDS011;68817;48.110;11.660;2023-04-07T00:18:54;8.38;;;4.97;;
79348;SDS011;68817;48.110;11.660;2023-04-07T00:21:19;6.68;;;4.38;;
79348;SDS011;68817;48.110;11.660;2023-04-07T00:23:45;7.95;;;4.55;;
79348;SDS011;68817;48.110;11.660;2023-04-07T00:26:11;6.68;;;4.63;;
79348;SDS011;68817;48.110;11.660;2023-04-07T00:28:39;6.32;;;4.45;;
79348;SDS011;68817;48.110;11.660;2023-04-07T00:31:05;6.28;;;4.40;;
79348;SDS011;68817;48.110;11.660;2023-04-07T00:33:30;8.35;;;5.25;;
79348;SDS011;68817;48.110;11.660;2023-04-07T00:35:55;6.53;;;4.10;;
79348;SDS011;68817;48.110;11.660;2023-04-07T00:38:22;6.70;;;4.32;;
79348;SDS011;68817;48.110;11.660;2023-04-07T00:40:48;6.63;;;4.30;;
79348;SDS011;68817;48.110;11.660;2023-04-07T00:43:13;5.53;;;4.32;;
79348;SDS011;68817;48.110;11.660;2023-04-07T00:45:38;6.43;;;4.38;;
79348;SDS011;68817;48.110;11.660;2023-04-07T00:48:04;7.05;;;4.35;;
79348;SDS011;68817;48.110;11.660;2023-04-07T00:50:30;6.32;;;4.50;;
79348;SDS011;68817;48.110;11.660;2023-04-07T00:52:55;6.43;;;4.43;;
79348;SDS011;68817;48.110;11.660;2023-04-07T00:55:22;7.18;;;4.28;;
79348;SDS011;68817;48.110;11.660;2023-04-07T00:57:48;8.63;;;4.25;;
79348;SDS011;68817;48.110;11.660;2023-04-07T01:00:13;6.90;;;4.68;;
79348;SDS011;68817;48.110;11.660;2023-04-07T01:02:44;5.38;;;3.85;;
79348;SDS011;68817;48.110;11.660;2023-04-07T01:05:16;7.60;;;4.15;;
79348;SDS011;68817;48.110;11.660;2023-04-07T01:10:26;7.32;;;4.32;;
79348;SDS011;68817;48.110;11.660;2023-04-07T01:13:04;6.47;;;4.20;;
79348;SDS011;68817;48.110;11.660;2023-04-07T01:15:31;8.07;;;4.05;;
79348;SDS011;68817;48.110;11.660;2023-04-07T01:18:05;8.73;;;4.30;;
79348;SDS011;68817;48.110;11.660;2023-04-07T01:20:35;6.72;;;4.28;;
79348;SDS011;68817;48.110;11.660;2023-04-07T01:23:03;6.63;;;4.00;;
79348;SDS011;68817;48.110;11.660;2023-04-07T01:30:37;7.20;;;3.92;;
79348;SDS011;68817;48.110;11.660;2023-04-07T01:33:04;6.60;;;4.03;;
79348;SDS011;68817;48.110;11.660;2023-04-07T01:35:32;7.93;;;4.07;;
79348;SDS011;68817;48.110;11.660;2023-04-07T01:37:59;7.07;;;4.07;;
79348;SDS011;68817;48.110;11.660;2023-04-07T01:40:24;5.32;;;3.40;;
79348;SDS011;68817;48.110;11.660;2023-04-07T01:42:51;5.15;;;3.63;;
79348;SDS011;68817;48.110;11.660;2023-04-07T01:45:17;5.43;;;3.63;;
79348;SDS011;68817;48.110;11.660;2023-04-07T01:47:44;5.40;;;3.65;;
79348;SDS011;68817;48.110;11.660;2023-04-07T01:50:10;7.80;;;4.35;;
79348;SDS011;68817;48.110;11.660;2023-04-07T01:52:36;6.72;;;3.58;;
79348;SDS011;68817;48.110;11.660;2023-04-07T01:55:03;7.05;;;3.55;;
79348;SDS011;68817;48.110;11.660;2023-04-07T01:57:30;5.65;;;3.22;;
79348;SDS011;68817;48.110;11.660;2023-04-07T02:00:01;5.57;;;3.30;;
79348;SDS011;68817;48.110;11.660;2023-04-07T02:02:40;5.85;;;3.70;;
79348;SDS011;68817;48.110;11.660;2023-04-07T02:05:08;5.85;;;3.22;;
79348;SDS011;68817;48.110;11.660;2023-04-07T02:07:41;5.70;;;3.50;;
79348;SDS011;68817;48.110;11.660;2023-04-07T02:10:12;4.05;;;2.58;;
79348;SDS011;68817;48.110;11.660;2023-04-07T02:12:40;5.07;;;3.00;;
79348;SDS011;68817;48.110;11.660;2023-04-07T02:15:12;5.10;;;3.22;;
79348;SDS011;68817;48.110;11.660;2023-04-07T02:17:43;4.43;;;3.15;;
79348;SDS011;68817;48.110;11.660;2023-04-07T02:20:13;6.10;;;3.15;;
79348;SDS011;68817;48.110;11.660;2023-04-07T02:22:39;3.92;;;2.97;;
79348;SDS011;68817;48.110;11.660;2023-04-07T02:27:54;4.32;;;2.75;;
79348;SDS011;68817;48.110;11.660;2023-04-07T02:30:21;4.47;;;2.90;;
79348;SDS011;68817;48.110;11.660;2023-04-07T02:32:46;6.30;;;3.13;;
79348;SDS011;68817;48.110;11.660;2023-04-07T02:35:13;4.97;;;2.83;;
79348;SDS011;68817;48.110;11.660;2023-04-07T02:37:39;5.80;;;3.17;;
79348;SDS011;68817;48.110;11.660;2023-04-07T02:40:04;4.80;;;2.60;;
79348;SDS011;68817;48.110;11.660;2023-04-07T02:42:30;5.38;;;2.80;;
79348;SDS011;68817;48.110;11.660;2023-04-07T02:44:56;3.85;;;2.83;;
79348;SDS011;68817;48.110;11.660;2023-04-07T02:47:21;6.18;;;2.90;;
79348;SDS011;68817;48.110;11.660;2023-04-07T02:49:48;3.38;;;2.35;;
79348;SDS011;68817;48.110;11.660;2023-04-07T02:52:13;5.32;;;2.67;;
79348;SDS011;68817;48.110;11.660;2023-04-07T02:54:38;4.53;;;2.85;;
79348;SDS011;68817;48.110;11.660;2023-04-07T02:57:05;4.72;;;2.80;;
79348;SDS011;68817;48.110;11.660;2023-04-07T02:59:30;3.72;;;2.25;;
79348;SDS011;68817;48.110;11.660;2023-04-07T03:01:55;4.18;;;2.80;;
79348;SDS011;68817;48.110;11.660;2023-04-07T03:04:21;4.72;;;2.90;;
79348;SDS011;68817;48.110;11.660;2023-04-07T03:06:47;5.88;;;2.78;;
79348;SDS011;68817;48.110;11.660;2023-04-07T03:09:14;4.75;;;2.83;;
79348;SDS011;68817;48.110;11.660;2023-04-07T03:11:40;4.63;;;3.00;;
79348;SDS011;68817;48.110;11.660;2023-04-07T03:14:08;5.13;;;3.03;;
79348;SDS011;68817;48.110;11.660;2023-04-07T03:16:40;5.28;;;2.88;;
79348;SDS011;68817;48.110;11.660;2023-04-07T03:19:09;5.50;;;3.28;;
79348;SDS011;68817;48.110;11.660;2023-04-07T03:21:39;5.22;;;2.90;;
79348;SDS011;68817;48.110;11.660;2023-04-07T03:24:07;4.90;;;3.05;;
79348;SDS011;68817;48.110;11.660;2023-04-07T03:26:33;5.03;;;2.80;;
79348;SDS011;68817;48.110;11.660;2023-04-07T03:29:00;3.97;;;3.10;;
79348;SDS011;68817;48.110;11.660;2023-04-07T03:31:27;4.55;;;2.92;;
79348;SDS011;68817;48.110;11.660;2023-04-07T03:33:54;5.85;;;3.47;;
79348;SDS011;68817;48.110;11.660;2023-04-07T03:36:20;5.25;;;3.08;;
79348;SDS011;68817;48.110;11.660;2023-04-07T03:38:46;6.13;;;3.40;;
79348;SDS011;68817;48.110;11.660;2023-04-07T03:41:13;4.80;;;2.83;;
79348;SDS011;68817;48.110;11.660;2023-04-07T03:43:39;5.57;;;2.92;;
79348;SDS011;68817;48.110;11.660;2023-04-07T03:46:05;4.03;;;2.92;;
79348;SDS011;68817;48.110;11.660;2023-04-07T03:48:31;4.85;;;2.92;;
79348;SDS011;68817;48.110;11.660;2023-04-07T03:51:04;5.82;;;3.22;;
79348;SDS011;68817;48.110;11.660;2023-04-07T03:53:30;4.28;;;2.78;;
79348;SDS011;68817;48.110;11.660;2023-04-07T03:55:57;5.43;;;3.13;;
79348;SDS011;68817;48.110;11.660;2023-04-07T03:58:38;4.93;;;2.92;;
79348;SDS011;68817;48.110;11.660;2023-04-07T04:01:08;5.18;;;3.28;;
79348;SDS011;68817;48.110;11.660;2023-04-07T04:03:34;5.07;;;3.25;;
79348;SDS011;68817;48.110;11.660;2023-04-07T04:06:35;5.82;;;2.88;;
79348;SDS011;68817;48.110;11.660;2023-04-07T04:09:12;5.55;;;3.35;;
79348;SDS011;68817;48.110;11.660;2023-04-07T04:11:43;5.82;;;3.42;;
79348;SDS011;68817;48.110;11.660;2023-04-07T04:14:09;5.03;;;3.40;;
79348;SDS011;68817;48.110;11.660;2023-04-07T04:16:36;6.00;;;3.40;;
79348;SDS011;68817;48.110;11.660;2023-04-07T04:19:07;6.07;;;3.35;;
79348;SDS011;68817;48.110;11.660;2023-04-07T04:21:33;6.15;;;3.47;;
79348;SDS011;68817;48.110;11.660;2023-04-07T04:23:58;6.00;;;3.58;;
79348;SDS011;68817;48.110;11.660;2023-04-07T04:26:26;4.80;;;3.35;;
79348;SDS011;68817;48.110;11.660;2023-04-07T04:28:56;4.85;;;2.85;;
79348;SDS011;68817;48.110;11.660;2023-04-07T04:31:21;5.03;;;3.13;;
79348;SDS011;68817;48.110;11.660;2023-04-07T04:33:47;7.03;;;3.40;;
79348;SDS011;68817;48.110;11.660;2023-04-07T04:36:12;6.22;;;3.88;;
79348;SDS011;68817;48.110;11.660;2023-04-07T04:38:39;5.75;;;3.95;;
79348;SDS011;68817;48.110;11.660;2023-04-07T04:41:13;6.68;;;3.67;;
79348;SDS011;68817;48.110;11.660;2023-04-07T04:43:38;5.88;;;3.60;;
79348;SDS011;68817;48.110;11.660;2023-04-07T04:46:05;5.90;;;3.40;;
79348;SDS011;68817;48.110;11.660;2023-04-07T04:48:36;5.97;;;3.63;;
79348;SDS011;68817;48.110;11.660;2023-04-07T04:51:04;6.40;;;3.60;;
79348;SDS011;68817;48.110;11.660;2023-04-07T04:53:29;4.53;;;2.95;;
79348;SDS011;68817;48.110;11.660;2023-04-07T04:55:58;7.45;;;3.72;;
79348;SDS011;68817;48.110;11.660;2023-04-07T04:58:44;5.78;;;3.33;;
79348;SDS011;68817;48.110;11.660;2023-04-07T05:01:15;5.75;;;3.45;;
79348;SDS011;68817;48.110;11.660;2023-04-07T05:03:47;5.57;;;3.88;;
79348;SDS011;68817;48.110;11.660;2023-04-07T05:06:17;5.95;;;3.65;;
79348;SDS011;68817;48.110;11.660;2023-04-07T05:08:46;6.15;;;3.35;;
79348;SDS011;68817;48.110;11.660;2023-04-07T05:11:13;7.07;;;3.30;;
79348;SDS011;68817;48.110;11.660;2023-04-07T05:13:40;5.43;;;3.50;;
79348;SDS011;68817;48.110;11.660;2023-04-07T05:16:05;4.95;;;3.58;;
79348;SDS011;68817;48.110;11.660;2023-04-07T05:18:32;5.78;;;3.92;;
79348;SDS011;68817;48.110;11.660;2023-04-07T05:20:58;5.70;;;3.80;;
79348;SDS011;68817;48.110;11.660;2023-04-07T05:23:26;6.25;;;3.90;;
79348;SDS011;68817;48.110;11.660;2023-04-07T05:25:51;7.93;;;3.92;;
79348;SDS011;68817;48.110;11.660;2023-04-07T05:28:17;6.45;;;4.07;;
79348;SDS011;68817;48.110;11.660;2023-04-07T05:30:44;7.00;;;4.25;;
79348;SDS011;68817;48.110;11.660;2023-04-07T05:33:09;7.88;;;3.80;;
79348;SDS011;68817;48.110;11.660;2023-04-07T05:35:43;5.55;;;3.90;;
79348;SDS011;68817;48.110;11.660;2023-04-07T05:38:08;5.97;;;4.18;;
79348;SDS011;68817;48.110;11.660;2023-04-07T05:40:36;6.25;;;3.55;;
79348;SDS011;68817;48.110;11.660;2023-04-07T05:43:02;6.63;;;3.90;;
79348;SDS011;68817;48.110;11.660;2023-04-07T05:45:30;7.32;;;4.03;;
79348;SDS011;68817;48.110;11.660;2023-04-07T05:47:55;5.22;;;3.50;;
79348;SDS011;68817;48.110;11.660;2023-04-07T05:50:28;6.10;;;4.53;;
79348;SDS011;68817;48.110;11.660;2023-04-07T05:52:56;7.28;;;4.57;;
79348;SDS011;68817;48.110;11.660;2023-04-07T05:55:25;6.72;;;3.90;;
79348;SDS011;68817;48.110;11.660;2023-04-07T05:57:51;5.53;;;3.85;;
79348;SDS011;68817;48.110;11.660;2023-04-07T06:00:19;6.68;;;3.95;;
79348;SDS011;68817;48.110;11.660;2023-04-07T06:02:55;6.07;;;3.97;;
79348;SDS011;68817;48.110;11.660;2023-04-07T06:05:20;6.78;;;4.22;;
79348;SDS011;68817;48.110;11.660;2023-04-07T06:07:50;5.38;;;4.00;;
79348;SDS011;68817;48.110;11.660;2023-04-07T06:10:15;6.28;;;3.85;;
79348;SDS011;68817;48.110;11.660;2023-04-07T06:12:41;6.03;;;3.85;;
79348;SDS011;68817;48.110;11.660;2023-04-07T06:15:06;5.65;;;3.88;;
79348;SDS011;68817;48.110;11.660;2023-04-07T06:17:32;5.05;;;3.88;;
79348;SDS011;68817;48.110;11.660;2023-04-07T06:19:57;4.85;;;3.50;;
79348;SDS011;68817;48.110;11.660;2023-04-07T06:22:22;7.70;;;4.22;;
79348;SDS011;68817;48.110;11.660;2023-04-07T06:24:48;6.05;;;4.05;;
79348;SDS011;68817;48.110;11.660;2023-04-07T06:27:13;6.45;;;4.20;;
79348;SDS011;68817;48.110;11.660;2023-04-07T06:29:39;5.03;;;3.65;;
79348;SDS011;68817;48.110;11.660;2023-04-07T06:32:05;5.65;;;4.10;;
79348;SDS011;68817;48.110;11.660;2023-04-07T06:34:31;6.03;;;3.83;;
79348;SDS011;68817;48.110;11.660;2023-04-07T06:36:56;6.97;;;4.20;;
79348;SDS011;68817;48.110;11.660;2023-04-07T06:39:21;6.43;;;4.20;;
79348;SDS011;68817;48.110;11.660;2023-04-07T06:41:47;5.43;;;3.70;;
79348;SDS011;68817;48.110;11.660;2023-04-07T06:44:12;7.55;;;4.35;;
79348;SDS011;68817;48.110;11.660;2023-04-07T06:46:38;6.82;;;4.10;;
79348;SDS011;68817;48.110;11.660;2023-04-07T06:49:03;5.75;;;3.92;;
79348;SDS011;68817;48.110;11.660;2023-04-07T06:51:29;6.03;;;3.90;;
79348;SDS011;68817;48.110;11.660;2023-04-07T06:53:55;6.10;;;3.97;;
79348;SDS011;68817;48.110;11.660;2023-04-07T06:56:21;6.20;;;3.92;;
79348;SDS011;68817;48.110;11.660;2023-04-07T06:58:47;7.18;;;3.65;;
79348;SDS011;68817;48.110;11.660;2023-04-07T07:01:12;6.90;;;4.10;;
79348;SDS011;68817;48.110;11.660;2023-04-07T07:03:37;5.88;;;3.85;;
79348;SDS011;68817;48.110;11.660;2023-04-07T07:06:03;7.40;;;4.22;;
79348;SDS011;68817;48.110;11.660;2023-04-07T07:08:28;6.35;;;3.90;;
79348;SDS011;68817;48.110;11.660;2023-04-07T07:10:54;7.03;;;3.90;;
79348;SDS011;68817;48.110;11.660;2023-04-07T07:13:21;5.57;;;3.92;;
79348;SDS011;68817;48.110;11.660;2023-04-07T07:15:47;5.72;;;3.78;;
79348;SDS011;68817;48.110;11.660;2023-04-07T07:18:13;5.65;;;3.70;;
79348;SDS011;68817;48.110;11.660;2023-04-07T07:20:38;6.10;;;4.15;;
79348;SDS011;68817;48.110;11.660;2023-04-07T07:23:04;6.60;;;4.15;;
79348;SDS011;68817;48.110;11.660;2023-04-07T07:25:30;5.97;;;4.50;;
79348;SDS011;68817;48.110;11.660;2023-04-07T07:27:55;6.18;;;3.88;;
79348;SDS011;68817;48.110;11.660;2023-04-07T07:30:21;4.97;;;3.80;;
79348;SDS011;68817;48.110;11.660;2023-04-07T07:32:48;5.55;;;4.00;;
79348;SDS011;68817;48.110;11.660;2023-04-07T07:35:13;7.00;;;4.55;;
79348;SDS011;68817;48.110;11.660;2023-04-07T07:37:39;7.57;;;4.38;;
79348;SDS011;68817;48.110;11.660;2023-04-07T07:40:05;7.07;;;4.05;;
79348;SDS011;68817;48.110;11.660;2023-04-07T07:42:31;6.95;;;4.20;;
79348;SDS011;68817;48.110;11.660;2023-04-07T07:44:57;5.38;;;4.32;;
79348;SDS011;68817;48.110;11.660;2023-04-07T07:47:23;8.45;;;4.30;;
79348;SDS011;68817;48.110;11.660;2023-04-07T07:49:49;6.35;;;4.43;;
79348;SDS011;68817;48.110;11.660;2023-04-07T07:52:15;8.38;;;4.60;;
79348;SDS011;68817;48.110;11.660;2023-04-07T07:54:40;5.65;;;3.95;;
79348;SDS011;68817;48.110;11.660;2023-04-07T07:57:05;6.03;;;4.18;;
79348;SDS011;68817;48.110;11.660;2023-04-07T07:59:31;6.75;;;4.20;;
79348;SDS011;68817;48.110;11.660;2023-04-07T08:01:56;6.28;;;4.15;;
79348;SDS011;68817;48.110;11.660;2023-04-07T08:04:22;5.07;;;3.63;;
79348;SDS011;68817;48.110;11.660;2023-04-07T08:06:48;6.63;;;4.25;;
79348;SDS011;68817;48.110;11.660;2023-04-07T08:09:15;5.53;;;3.78;;
79348;SDS011;68817;48.110;11.660;2023-04-07T08:11:40;5.10;;;4.13;;
79348;SDS011;68817;48.110;11.660;2023-04-07T08:14:06;6.53;;;4.22;;
79348;SDS011;68817;48.110;11.660;2023-04-07T08:16:31;5.95;;;3.92;;
79348;SDS011;68817;48.110;11.660;2023-04-07T08:18:57;5.28;;;4.00;;
79348;SDS011;68817;48.110;11.660;2023-04-07T08:21:22;7.43;;;4.00;;
79348;SDS011;68817;48.110;11.660;2023-04-07T08:23:47;5.72;;;4.03;;
79348;SDS011;68817;48.110;11.660;2023-04-07T08:26:13;5.57;;;4.30;;
79348;SDS011;68817;48.110;11.660;2023-04-07T08:28:39;5.40;;;4.18;;
79348;SDS011;68817;48.110;11.660;2023-04-07T08:31:05;6.30;;;4.10;;
79348;SDS011;68817;48.110;11.660;2023-04-07T08:33:31;4.97;;;4.03;;
79348;SDS011;68817;48.110;11.660;2023-04-07T08:35:56;6.10;;;4.32;;
79348;SDS011;68817;48.110;11.660;2023-04-07T08:38:22;7.05;;;3.97;;
79348;SDS011;68817;48.110;11.660;2023-04-07T08:40:52;5.68;;;4.45;;
79348;SDS011;68817;48.110;11.660;2023-04-07T08:43:19;6.97;;;4.30;;
79348;SDS011;68817;48.110;11.660;2023-04-07T08:45:45;5.20;;;3.90;;
79348;SDS011;68817;48.110;11.660;2023-04-07T08:48:17;5.22;;;4.00;;
79348;SDS011;68817;48.110;11.660;2023-04-07T08:50:44;6.43;;;4.18;;
79348;SDS011;68817;48.110;11.660;2023-04-07T08:53:11;5.78;;;4.20;;
79348;SDS011;68817;48.110;11.660;2023-04-07T08:55:39;5.63;;;4.05;;
79348;SDS011;68817;48.110;11.660;2023-04-07T08:58:05;6.72;;;4.07;;
79348;SDS011;68817;48.110;11.660;2023-04-07T09:00:30;6.57;;;4.45;;
79348;SDS011;68817;48.110;11.660;2023-04-07T09:02:56;4.80;;;3.58;;
79348;SDS011;68817;48.110;11.660;2023-04-07T09:05:22;5.80;;;3.83;;
79348;SDS011;68817;48.110;11.660;2023-04-07T09:07:49;4.97;;;4.10;;
79348;SDS011;68817;48.110;11.660;2023-04-07T09:10:14;4.65;;;3.63;;
79348;SDS011;68817;48.110;11.660;2023-04-07T09:12:40;6.90;;;4.45;;
79348;SDS011;68817;48.110;11.660;2023-04-07T09:15:05;6.10;;;3.78;;
79348;SDS011;68817;48.110;11.660;2023-04-07T09:17:31;5.22;;;4.20;;
79348;SDS011;68817;48.110;11.660;2023-04-07T09:19:57;5.55;;;4.22;;
79348;SDS011;68817;48.110;11.660;2023-04-07T09:22:36;6.15;;;4.10;;
79348;SDS011;68817;48.110;11.660;2023-04-07T09:30:27;5.45;;;4.45;;
79348;SDS011;68817;48.110;11.660;2023-04-07T09:32:53;5.25;;;3.83;;
79348;SDS011;68817;48.110;11.660;2023-04-07T09:35:19;5.07;;;3.80;;
79348;SDS011;68817;48.110;11.660;2023-04-07T09:38:08;8.07;;;3.92;;
79348;SDS011;68817;48.110;11.660;2023-04-07T09:40:33;5.07;;;3.85;;
79348;SDS011;68817;48.110;11.660;2023-04-07T09:43:00;6.88;;;4.22;;
79348;SDS011;68817;48.110;11.660;2023-04-07T09:45:26;5.03;;;4.07;;
79348;SDS011;68817;48.110;11.660;2023-04-07T09:47:52;4.55;;;4.00;;
79348;SDS011;68817;48.110;11.660;2023-04-07T09:50:34;5.45;;;4.13;;
79348;SDS011;68817;48.110;11.660;2023-04-07T09:53:09;5.20;;;4.00;;
79348;SDS011;68817;48.110;11.660;2023-04-07T09:55:35;5.25;;;4.30;;
79348;SDS011;68817;48.110;11.660;2023-04-07T09:58:01;5.70;;;4.30;;
79348;SDS011;68817;48.110;11.660;2023-04-07T10:00:28;5.63;;;4.40;;
79348;SDS011;68817;48.110;11.660;2023-04-07T10:02:54;4.97;;;4.25;;
79348;SDS011;68817;48.110;11.660;2023-04-07T10:05:20;5.97;;;4.75;;
79348;SDS011;68817;48.110;11.660;2023-04-07T10:07:46;5.93;;;3.90;;
79348;SDS011;68817;48.110;11.660;2023-04-07T10:10:12;6.25;;;4.15;;
79348;SDS011;68817;48.110;11.660;2023-04-07T10:12:38;5.05;;;4.07;;
79348;SDS011;68817;48.110;11.660;2023-04-07T10:15:05;5.47;;;4.20;;
79348;SDS011;68817;48.110;11.660;2023-04-07T10:17:30;7.32;;;4.75;;
79348;SDS011;68817;48.110;11.660;2023-04-07T10:19:57;5.78;;;4.28;;
79348;SDS011;68817;48.110;11.660;2023-04-07T10:22:23;5.47;;;3.90;;
79348;SDS011;68817;48.110;11.660;2023-04-07T10:24:57;4.93;;;3.90;;
79348;SDS011;68817;48.110;11.660;2023-04-07T10:27:32;4.55;;;3.90;;
79348;SDS011;68817;48.110;11.660;2023-04-07T10:29:59;6.65;;;4.25;;
79348;SDS011;68817;48.110;11.660;2023-04-07T10:32:25;7.22;;;4.15;;
79348;SDS011;68817;48.110;11.660;2023-04-07T10:37:20;6.75;;;3.97;;
79348;SDS011;68817;48.110;11.660;2023-04-07T10:39:49;5.18;;;3.83;;
79348;SDS011;68817;48.110;11.660;2023-04-07T10:45:06;5.78;;;4.20;;
79348;SDS011;68817;48.110;11.660;2023-04-07T10:47:33;6.22;;;4.30;;
79348;SDS011;68817;48.110;11.660;2023-04-07T10:50:14;4.90;;;4.20;;
79348;SDS011;68817;48.110;11.660;2023-04-07T10:52:45;4.97;;;4.47;;
79348;SDS011;68817;48.110;11.660;2023-04-07T11:00:42;5.03;;;4.43;;
79348;SDS011;68817;48.110;11.660;2023-04-07T11:03:12;4.90;;;4.32;;
79348;SDS011;68817;48.110;11.660;2023-04-07T11:05:41;7.57;;;4.75;;
79348;SDS011;68817;48.110;11.660;2023-04-07T11:08:07;5.35;;;4.68;;
79348;SDS011;68817;48.110;11.660;2023-04-07T11:10:32;6.72;;;4.63;;
79348;SDS011;68817;48.110;11.660;2023-04-07T11:13:03;6.38;;;4.43;;
79348;SDS011;68817;48.110;11.660;2023-04-07T11:15:29;6.15;;;4.20;;
79348;SDS011;68817;48.110;11.660;2023-04-07T11:18:14;5.82;;;4.07;;
79348;SDS011;68817;48.110;11.660;2023-04-07T11:20:52;6.15;;;4.30;;
79348;SDS011;68817;48.110;11.660;2023-04-07T11:23:20;5.68;;;4.70;;
79348;SDS011;68817;48.110;11.660;2023-04-07T11:25:48;5.13;;;4.10;;
79348;SDS011;68817;48.110;11.660;2023-04-07T11:28:14;5.75;;;4.05;;
79348;SDS011;68817;48.110;11.660;2023-04-07T11:30:51;7.13;;;4.80;;
79348;SDS011;68817;48.110;11.660;2023-04-07T11:33:17;5.45;;;4.95;;
79348;SDS011;68817;48.110;11.660;2023-04-07T11:35:48;6.32;;;4.60;;
79348;SDS011;68817;48.110;11.660;2023-04-07T11:40:43;7.22;;;4.93;;
79348;SDS011;68817;48.110;11.660;2023-04-07T11:43:15;5.03;;;4.03;;
79348;SDS011;68817;48.110;11.660;2023-04-07T11:45:42;6.85;;;5.22;;
79348;SDS011;68817;48.110;11.660;2023-04-07T11:48:26;6.93;;;4.90;;
79348;SDS011;68817;48.110;11.660;2023-04-07T11:50:55;5.68;;;4.28;;
79348;SDS011;68817;48.110;11.660;2023-04-07T11:53:30;6.97;;;5.13;;
79348;SDS011;68817;48.110;11.660;2023-04-07T11:58:30;6.88;;;4.78;;
79348;SDS011;68817;48.110;11.660;2023-04-07T12:00:56;5.75;;;3.88;;
79348;SDS011;68817;48.110;11.660;2023-04-07T12:03:22;6.18;;;4.32;;
79348;SDS011;68817;48.110;11.660;2023-04-07T12:05:47;6.30;;;4.85;;
79348;SDS011;68817;48.110;11.660;2023-04-07T12:08:13;5.57;;;4.43;;
79348;SDS011;68817;48.110;11.660;2023-04-07T12:10:40;5.53;;;4.50;;
79348;SDS011;68817;48.110;11.660;2023-04-07T12:13:06;7.00;;;4.32;;
79348;SDS011;68817;48.110;11.660;2023-04-07T12:15:32;5.15;;;4.07;;
79348;SDS011;68817;48.110;11.660;2023-04-07T12:17:58;5.90;;;4.60;;
79348;SDS011;68817;48.110;11.660;2023-04-07T12:20:23;5.68;;;4.25;;
79348;SDS011;68817;48.110;11.660;2023-04-07T12:22:50;5.65;;;4.57;;
79348;SDS011;68817;48.110;11.660;2023-04-07T12:25:16;7.18;;;4.75;;
79348;SDS011;68817;48.110;11.660;2023-04-07T12:27:42;6.78;;;4.32;;
79348;SDS011;68817;48.110;11.660;2023-04-07T12:30:07;5.15;;;4.32;;
79348;SDS011;68817;48.110;11.660;2023-04-07T12:32:33;8.02;;;4.55;;
79348;SDS011;68817;48.110;11.660;2023-04-07T12:34:59;5.75;;;4.20;;
79348;SDS011;68817;48.110;11.660;2023-04-07T12:37:25;5.97;;;4.35;;
79348;SDS011;68817;48.110;11.660;2023-04-07T12:39:50;5.43;;;4.07;;
79348;SDS011;68817;48.110;11.660;2023-04-07T12:42:15;8.15;;;4.82;;
79348;SDS011;68817;48.110;11.660;2023-04-07T12:44:41;7.20;;;4.90;;
79348;SDS011;68817;48.110;11.660;2023-04-07T12:47:06;5.95;;;4.90;;
79348;SDS011;68817;48.110;11.660;2023-04-07T12:49:32;6.47;;;4.45;;
79348;SDS011;68817;48.110;11.660;2023-04-07T12:51:57;5.18;;;4.28;;
79348;SDS011;68817;48.110;11.660;2023-04-07T12:54:23;5.68;;;4.40;;
79348;SDS011;68817;48.110;11.660;2023-04-07T12:56:48;8.23;;;4.72;;
79348;SDS011;68817;48.110;11.660;2023-04-07T12:59:14;7.18;;;4.65;;
79348;SDS011;68817;48.110;11.660;2023-04-07T13:01:40;6.68;;;4.70;;
79348;SDS011;68817;48.110;11.660;2023-04-07T13:04:05;7.15;;;4.45;;
79348;SDS011;68817;48.110;11.660;2023-04-07T13:06:30;5.45;;;4.20;;
79348;SDS011;68817;48.110;11.660;2023-04-07T13:08:56;6.53;;;4.55;;
79348;SDS011;68817;48.110;11.660;2023-04-07T13:11:21;6.80;;;5.28;;
79348;SDS011;68817;48.110;11.660;2023-04-07T13:13:47;7.72;;;5.72;;
79348;SDS011;68817;48.110;11.660;2023-04-07T13:16:12;7.18;;;5.22;;
79348;SDS011;68817;48.110;11.660;2023-04-07T13:18:38;6.95;;;4.97;;
79348;SDS011;68817;48.110;11.660;2023-04-07T13:21:03;7.75;;;5.00;;
79348;SDS011;68817;48.110;11.660;2023-04-07T13:23:29;6.78;;;4.88;;
79348;SDS011;68817;48.110;11.660;2023-04-07T13:25:54;6.82;;;5.40;;
79348;SDS011;68817;48.110;11.660;2023-04-07T13:28:20;5.82;;;4.70;;
79348;SDS011;68817;48.110;11.660;2023-04-07T13:30:45;7.72;;;5.78;;
79348;SDS011;68817;48.110;11.660;2023-04-07T13:33:11;7.20;;;5.35;;
79348;SDS011;68817;48.110;11.660;2023-04-07T13:35:37;6.57;;;4.95;;
79348;SDS011;68817;48.110;11.660;2023-04-07T13:38:02;7.53;;;5.40;;
79348;SDS011;68817;48.110;11.660;2023-04-07T13:40:28;7.93;;;5.88;;
79348;SDS011;68817;48.110;11.660;2023-04-07T13:42:54;8.25;;;5.72;;
79348;SDS011;68817;48.110;11.660;2023-04-07T13:45:20;7.35;;;5.70;;
79348;SDS011;68817;48.110;11.660;2023-04-07T13:47:46;8.57;;;6.15;;
79348;SDS011;68817;48.110;11.660;2023-04-07T13:50:11;6.90;;;5.30;;
79348;SDS011;68817;48.110;11.660;2023-04-07T13:52:37;9.25;;;6.22;;
79348;SDS011;68817;48.110;11.660;2023-04-07T13:55:02;9.43;;;6.50;;
79348;SDS011;68817;48.110;11.660;2023-04-07T13:57:29;7.78;;;5.68;;
79348;SDS011;68817;48.110;11.660;2023-04-07T13:59:55;8.70;;;6.10;;
79348;SDS011;68817;48.110;11.660;2023-04-07T14:02:20;7.10;;;5.20;;
79348;SDS011;68817;48.110;11.660;2023-04-07T14:04:46;9.55;;;6.30;;
79348;SDS011;68817;48.110;11.660;2023-04-07T14:07:12;9.98;;;6.18;;
79348;SDS011;68817;48.110;11.660;2023-04-07T14:09:37;8.77;;;5.70;;
79348;SDS011;68817;48.110;11.660;2023-04-07T14:12:03;8.27;;;4.90;;
79348;SDS011;68817;48.110;11.660;2023-04-07T14:14:29;7.63;;;5.43;;
79348;SDS011;68817;48.110;11.660;2023-04-07T14:16:55;7.88;;;5.10;;
79348;SDS011;68817;48.110;11.660;2023-04-07T14:19:21;6.85;;;5.07;;
79348;SDS011;68817;48.110;11.660;2023-04-07T14:21:47;7.97;;;5.30;;
79348;SDS011;68817;48.110;11.660;2023-04-07T14:24:13;6.63;;;4.95;;
79348;SDS011;68817;48.110;11.660;2023-04-07T14:26:38;8.30;;;5.28;;
79348;SDS011;68817;48.110;11.660;2023-04-07T14:29:04;8.32;;;4.63;;
79348;SDS011;68817;48.110;11.660;2023-04-07T14:31:29;7.43;;;5.28;;
79348;SDS011;68817;48.110;11.660;2023-04-07T14:33:54;7.47;;;4.57;;
79348;SDS011;68817;48.110;11.660;2023-04-07T14:36:20;7.30;;;4.80;;
79348;SDS011;68817;48.110;11.660;2023-04-07T14:38:45;5.53;;;4.32;;
79348;SDS011;68817;48.110;11.660;2023-04-07T14:41:11;7.05;;;4.70;;
79348;SDS011;68817;48.110;11.660;2023-04-07T14:43:37;6.72;;;4.80;;
79348;SDS011;68817;48.110;11.660;2023-04-07T14:46:03;7.07;;;4.43;;
79348;SDS011;68817;48.110;11.660;2023-04-07T14:48:29;5.70;;;4.47;;
79348;SDS011;68817;48.110;11.660;2023-04-07T14:50:54;5.43;;;4.00;;
79348;SDS011;68817;48.110;11.660;2023-04-07T14:53:20;6.40;;;4.25;;
79348;SDS011;68817;48.110;11.660;2023-04-07T14:55:45;5.30;;;4.20;;
79348;SDS011;68817;48.110;11.660;2023-04-07T14:58:11;6.15;;;3.17;;
79348;SDS011;68817;48.110;11.660;2023-04-07T15:00:36;5.22;;;3.50;;
79348;SDS011;68817;48.110;11.660;2023-04-07T15:03:02;5.43;;;3.95;;
79348;SDS011;68817;48.110;11.660;2023-04-07T15:05:28;5.22;;;3.58;;